My Meet Scores
Julia Swierczewski, St. Charles Gymnastics Academy - MyMeetScores.com
Top100 | Top Teams | Upcoming Meets | Completed Meets | Latest | Add Scores | Help| Support | Bookmark and Share

Julia Swierczewski, St. Charles Gymnastics Academy
Personal Bests
LevelVault BarsBeamFloorAA
39.2508.650 8.4508.95034.675
48.8759.675 9.5759.35037.100
69.3009.325 9.4259.80037.300
79.1509.475 9.2509.65037.150
Meet Scores
Date Meet Team Session Level Division Vault Bars Beam Floor AA
2021-04-09 Illinois Level 7 8 State Championships St. Charles Gymnastics Academy 3 7 Sr A 8.875 17T 9.475 7 8.825 21T 9.650 2 36.825 12
2021-03-12 LUCKY INVITATIONAL St. Charles Gymnastics Academy B07 7 Jr B 8.825 9T 9.250 5 9.250 6T 9.550 4 36.875 5
2021-02-19 BIG Classic 2021 St. Charles Gymnastics Academy 8A 7 Junior B 9.150 2T 9.400 2 9.000 6 9.600 1 37.150 1
2021-02-11 SCGA Classic 2021 St. Charles Gymnastics Academy 7 7 Jr C 8.850 2 8.475 4 9.225 4 9.475 2 36.025 2
2021-02-11 SCGA Classic 2021 St. Charles Gymnastics Academy 1 7 Jr C 8.850 2 8.475 4 9.225 4 9.475 2 36.025 3
2021-02-11 SCGA Classic 2021 St. Charles Gymnastics Academy 0 7 Jr C 0.000 4*
2021-01-21 King Arthur Invitational St. Charles Gymnastics Academy 4 6 JR 9.300 2 9.200 4T 8.875 11 9.725 1 37.100 2
2020-02-28 MEGA Spring Invite 2020 St. Charles Gymnastics Academy 2 6 Junior 8.800 11T 9.325 10 8.900 15 9.275 5T 36.300 9
2020-02-21 Great Western Invitational - Women's St. Charles Gymnastics Academy 11 6 Filly 9.100 7 9.300 2 9.425 7T 9.475 3 37.300 2
2020-02-07 SCGA Classic St. Charles Gymnastics Academy 2 6 Jr A 8.150 5 9.300 2 8.850 5 9.625 1 35.925 4
2020-01-24 Sand Dollar Invitational 2020 St. Charles Gymnastics Academy D06 6 Jr B 9.000 1T 9.225 10 8.975 9 9.425 2 36.625 3
2020-01-10 St Jude Benefit Meet St. Charles Gymnastics Academy 1B 6 Jr B 8.725 7T 9.300 6 9.000 10 9.550 1 36.575 4
2019-12-13 2019 St Nick St. Charles Gymnastics Academy 4 6 JrB 8.725 5T 9.300 1 9.200 4 9.725 1 36.950 1
2019-03-15 Illinois State Championship Level 6,9,10 St. Charles Gymnastics Academy 10 6 Jr C 9.125 10T 8.900 12 9.175 14 9.650 2T 36.850 10T
2019-02-15 Women's Midwest Open St. Charles Gymnastics Academy 01 6 Junior A 9.000 3 9.275 2 8.875 9 9.550 3T 36.700 2
2019-01-25 Metroplex Challenge St. Charles Gymnastics Academy R05 6 Jr B 8.500 16 9.150 8 9.125 13 9.800 1 36.575 10
2018-12-07 St. Nick Invite 2018 St. Charles Gymnastics Academy 2 6 JrA 8.950 5 9.200 4 9.275 3 9.400 2T 36.825 2
2018-03-08 Level 4 & 5 State St. Charles Gymnastics Academy All 4 Yh B 8.750 11T 9.475 2 9.575 4 9.200 7 37.000 4
2018-02-23 Kinetic Classic St. Charles Gymnastics Academy 7 4 Middle 8.350 37T 9.300 6T 9.450 10T 9.050 38T 36.150 20
2018-02-16 Big Classic St. Charles Gymnastics Academy 7B 4 Child C 8.675 6 9.575 3 9.450 6 9.200 6T 36.900 5
2018-01-26 King Arthur Invitational St. Charles Gymnastics Academy 6 4 JR B 8.750 12T 9.550 2 9.450 3T 9.350 1 37.100 1
2018-01-12 St Jude Benefit Meet St. Charles Gymnastics Academy 2A 4 JrC 8.850 1 9.675 1 9.400 3 9.125 2 37.050 2
2017-12-14 2017 Women's Hawaiian Pineapple Classic St. Charles Gymnastics Academy 6A 4 Age9 8.600 5 9.000 3 8.325 8 9.125 3 35.050 5
2017-12-01 Ultimate Wish Classic St. Charles Gymnastics Academy 6 4 Jr C 8.650 3 9.300 1 9.350 1T 9.050 1 36.350 1
2017-11-17 SCGA Classic St. Charles Gymnastics Academy 2 4 JrA 8.750 7 8.950 2 9.050 3 9.325 2 36.075 1
2017-03-10 2017 Illinois Level 4 State Championships St. Charles Gymnastics Academy 1 4 Ch B 8.350 22T 9.025 9 9.325 5T 8.800 14T 35.500 10
2017-02-24 Kinetic Classic St. Charles Gymnastics Academy 5,6 4 All Ages 8.875 50T 9.000 57T 8.400 119T 8.675 87 34.950 82T
2017-02-10 IGI Chicago Style Gymnastics Meet St. Charles Gymnastics Academy 621L 4 JrA 8.200 12 8.700 12 8.600 15 8.600 13 34.100 13
2017-01-20 2017 Bravo Classic St. Charles Gymnastics Academy 06B 4 6-8yrs 8.675 4 8.750 8 9.050 4T 8.650 7 35.125 5
2017-01-13 St Jude Benefit Meet St. Charles Gymnastics Academy 3A 4 Jr A 8.625 2 8.650 6T 8.750 8* 8.150 11T 34.175 8T
2016-12-15 2016 Hawaiian Pineapple Sanction St. Charles Gymnastics Academy 9A 4 Ages 8U 8.650 1 8.725 1 8.450 2T 8.500 2 34.325 1
2016-12-02 Ultimate Wish Classic St. Charles Gymnastics Academy 13 4 Jr A 8.675 5 8.250 9 8.675 12 9.050 6T 34.650 10T
2016-01-22 King Arthur Invitational St. Charles Gymnastics Academy S7 3 Jr.A 9.250 2 8.400 9 8.075 14 8.950 6 34.675 7
2015-12-17 2015 Hawaiian Pineapple Classic St. Charles Gymnastics Academy 2B 3 Ages 7U 0.000 8T 8.650 5 8.450 4 8.450 3 25.550 8
Get your scores on
a t-shirt, pin, or hoodie